Jacksonville, Texas
Current Conditions -  °F | °C
As of 9:55 AM on Sunday 25 Jan 2015 (Local Time) from KJSO Reporting Station
Clear Clear  
Wind Chill: 52°   Ceiling: Unl
Heat Index: 52°   Visibility: 10mi
Dew Point: 37°   Wind: 10mph
Humidity: 58%   Direction: 310°NW
Pressure: 30.01"   Gusts: 16mph
Location:  31.96°N, 95.27°W
Report Text: KJSO 251555Z AUTO 31009G14KT 10SM CLR 11/03 A3001 RMK AO2
Loading
Personal Weather Stations






























Interactive Weather Map New forecast layout! Learn more

10-Day Weather Forecast

Advertisements
Track Severe Weather on mobile